createdAt,value
2019-04-30T00:01:25.931Z,2.53
2019-04-30T00:03:59.343Z,2.00
2019-04-30T00:06:33.783Z,2.63
2019-04-30T00:08:57.728Z,2.50
2019-04-30T00:11:26.508Z,2.67
2019-04-30T00:13:58.725Z,2.30
2019-04-30T00:16:25.388Z,2.73
2019-04-30T00:18:59.902Z,2.07
2019-04-30T00:21:42.920Z,2.30
2019-04-30T00:24:11.332Z,2.30
2019-04-30T00:26:40.050Z,2.03
2019-04-30T00:29:10.002Z,2.03
2019-04-30T00:31:38.078Z,2.53
2019-04-30T00:34:06.341Z,2.47
2019-04-30T00:36:37.403Z,2.60
2019-04-30T00:39:07.193Z,2.40
2019-04-30T00:41:39.879Z,2.53
2019-04-30T00:44:06.208Z,2.83
2019-04-30T00:46:36.391Z,2.60
2019-04-30T00:49:09.859Z,3.00
2019-04-30T00:51:35.465Z,2.80
2019-04-30T00:54:05.646Z,2.93
2019-04-30T00:56:35.458Z,3.03
2019-04-30T00:59:08.990Z,2.77
2019-04-30T01:01:39.039Z,3.27
2019-04-30T01:04:19.384Z,3.30
2019-04-30T01:06:46.565Z,3.10
2019-04-30T01:09:35.409Z,3.47
2019-04-30T01:12:05.466Z,3.40
2019-04-30T01:14:34.379Z,3.27
2019-04-30T01:17:03.675Z,3.37
2019-04-30T01:19:33.091Z,2.90
2019-04-30T01:22:01.903Z,3.20
2019-04-30T01:24:49.773Z,2.90
2019-04-30T01:27:18.801Z,3.17
2019-04-30T01:29:48.713Z,3.53
2019-04-30T01:32:20.835Z,3.67
2019-04-30T01:34:49.809Z,3.87
2019-04-30T01:37:20.327Z,3.75
2019-04-30T01:39:49.226Z,3.47
2019-04-30T01:42:18.474Z,2.87
2019-04-30T01:44:50.440Z,4.27
2019-04-30T01:47:21.361Z,3.77
2019-04-30T01:49:47.333Z,4.07
2019-04-30T01:52:15.736Z,3.63
2019-04-30T01:54:44.145Z,3.95
2019-04-30T01:57:13.857Z,3.70
2019-04-30T02:00:01.938Z,4.10
2019-04-30T02:02:32.082Z,3.97
2019-04-30T02:05:00.768Z,4.37
2019-04-30T02:07:29.185Z,3.57
2019-04-30T02:09:58.771Z,3.90
2019-04-30T02:12:29.503Z,4.40
2019-04-30T02:14:59.521Z,4.53
2019-04-30T02:17:29.296Z,4.27
2019-04-30T02:19:59.369Z,4.70
2019-04-30T02:22:30.888Z,4.83
2019-04-30T02:24:58.518Z,3.80
2019-04-30T02:27:26.860Z,4.67
2019-04-30T02:29:55.267Z,4.50
2019-04-30T02:32:23.670Z,4.43
2019-04-30T02:35:09.559Z,4.73
2019-04-30T02:37:43.419Z,4.03
2019-04-30T02:40:10.383Z,4.17
2019-04-30T02:42:39.857Z,4.07
2019-04-30T02:45:10.383Z,4.40
2019-04-30T02:47:40.000Z,4.70
2019-04-30T02:50:15.530Z,4.53
2019-04-30T02:52:40.192Z,4.80
2019-04-30T02:55:11.933Z,4.87
2019-04-30T02:57:40.335Z,4.73
2019-04-30T03:00:13.584Z,4.70
2019-04-30T03:02:41.663Z,4.03
2019-04-30T03:05:13.614Z,4.53
2019-04-30T03:07:41.005Z,4.90
2019-04-30T03:10:10.277Z,4.70
2019-04-30T03:12:40.440Z,4.87
2019-04-30T03:15:10.005Z,4.93
2019-04-30T03:17:50.705Z,4.53
2019-04-30T03:20:34.632Z,5.00
2019-04-30T03:22:53.893Z,3.93
2019-04-30T03:25:22.360Z,4.62
2019-04-30T03:27:50.771Z,4.60
2019-04-30T03:30:21.819Z,5.13
2019-04-30T03:32:55.508Z,4.13
2019-04-30T03:35:22.737Z,4.63
2019-04-30T03:37:49.652Z,4.17
2019-04-30T03:40:20.239Z,4.20
2019-04-30T03:42:49.420Z,4.93
2019-04-30T03:45:20.469Z,4.57
2019-04-30T03:47:50.400Z,4.00
2019-04-30T03:50:19.787Z,4.37
2019-04-30T03:52:50.387Z,4.73
2019-04-30T03:55:20.583Z,4.50
2019-04-30T03:57:51.642Z,4.37
2019-04-30T04:00:20.416Z,4.23
2019-04-30T04:02:50.155Z,4.63
2019-04-30T04:05:23.357Z,4.73
2019-04-30T04:07:56.657Z,4.97
2019-04-30T04:10:29.827Z,5.10
2019-04-30T04:12:59.698Z,5.10
2019-04-30T04:15:29.904Z,5.37
2019-04-30T04:18:00.373Z,5.00
2019-04-30T04:20:29.888Z,5.20
2019-04-30T04:22:59.851Z,5.00
2019-04-30T04:25:29.906Z,4.40
2019-04-30T04:28:00.377Z,5.47
2019-04-30T04:30:29.733Z,5.17
2019-04-30T04:32:59.895Z,5.70
2019-04-30T04:35:29.957Z,5.10
2019-04-30T04:38:00.432Z,4.60
2019-04-30T04:40:30.162Z,5.93
2019-04-30T04:43:00.301Z,5.00
2019-04-30T04:45:30.552Z,5.67
2019-04-30T04:48:00.115Z,4.92
2019-04-30T04:50:30.290Z,5.40
2019-04-30T04:52:59.447Z,4.50
2019-04-30T04:55:29.963Z,5.17
2019-04-30T04:57:59.969Z,4.97
2019-04-30T05:00:49.544Z,5.07
2019-04-30T05:03:25.116Z,4.45
2019-04-30T05:05:53.517Z,5.20
2019-04-30T05:08:21.928Z,4.20
2019-04-30T05:10:50.323Z,4.83
2019-04-30T05:13:19.359Z,5.25
2019-04-30T05:15:51.258Z,4.23
2019-04-30T05:18:19.160Z,5.10
2019-04-30T05:20:49.072Z,5.10
2019-04-30T05:23:21.565Z,4.57
2019-04-30T05:25:49.112Z,4.67
2019-04-30T05:28:18.881Z,4.97
2019-04-30T05:30:49.241Z,4.57
2019-04-30T05:33:18.606Z,4.57
2019-04-30T05:35:47.194Z,4.37
2019-04-30T05:38:15.596Z,4.07
2019-04-30T05:40:43.991Z,4.30
2019-04-30T05:43:12.455Z,3.73
2019-04-30T05:45:40.526Z,4.07
2019-04-30T05:48:08.993Z,3.90
2019-04-30T05:50:38.978Z,3.45
2019-04-30T05:53:28.518Z,4.37
2019-04-30T05:55:56.671Z,4.00
2019-04-30T05:58:25.090Z,4.05
2019-04-30T06:00:53.486Z,3.67
2019-04-30T06:03:29.737Z,3.87
2019-04-30T06:05:52.006Z,3.87
2019-04-30T06:08:21.723Z,3.25
2019-04-30T06:10:51.931Z,3.90
2019-04-30T06:13:25.065Z,3.83
2019-04-30T06:15:55.119Z,4.00
2019-04-30T06:18:23.517Z,3.93
2019-04-30T06:20:51.927Z,4.30
2019-04-30T06:23:20.391Z,4.25
2019-04-30T06:25:57.468Z,3.97
2019-04-30T06:28:22.004Z,4.10
2019-04-30T06:30:50.591Z,3.90
2019-04-30T06:33:19.438Z,3.60
2019-04-30T06:35:49.301Z,4.20
2019-04-30T06:38:18.486Z,4.20
2019-04-30T06:40:48.899Z,4.30
2019-04-30T06:43:19.166Z,4.30
2019-04-30T06:45:48.831Z,4.12
2019-04-30T06:48:19.879Z,4.37
2019-04-30T06:50:49.229Z,3.80
2019-04-30T06:53:19.261Z,4.20
2019-04-30T06:55:49.221Z,4.37
2019-04-30T06:58:20.406Z,4.33
2019-04-30T07:00:49.674Z,4.10
2019-04-30T07:03:19.186Z,4.80
2019-04-30T07:05:48.761Z,4.03
2019-04-30T07:08:39.563Z,3.87
2019-04-30T07:11:21.459Z,3.73
2019-04-30T07:13:52.162Z,3.10
2019-04-30T07:16:20.428Z,3.67
2019-04-30T07:18:48.984Z,3.80
2019-04-30T07:21:19.768Z,2.60
2019-04-30T07:23:48.535Z,3.10
2019-04-30T07:26:19.820Z,3.33
2019-04-30T07:28:52.731Z,2.75
2019-04-30T07:31:19.230Z,3.02
2019-04-30T07:33:51.441Z,3.10
2019-04-30T07:36:19.459Z,2.60
2019-04-30T07:38:54.491Z,2.60
2019-04-30T07:41:18.960Z,2.52
2019-04-30T07:43:49.468Z,4.60
2019-04-30T07:46:19.781Z,2.40
2019-04-30T07:48:49.950Z,2.77
2019-04-30T07:51:21.046Z,2.62
2019-04-30T07:53:49.630Z,2.15
2019-04-30T07:56:25.704Z,2.45
2019-04-30T07:58:50.451Z,2.60
2019-04-30T08:01:19.564Z,2.08
2019-04-30T08:03:50.248Z,1.85
2019-04-30T08:06:22.186Z,1.70
2019-04-30T08:08:50.709Z,1.50
2019-04-30T08:11:25.620Z,1.92
2019-04-30T08:13:50.409Z,1.87
2019-04-30T08:16:19.431Z,1.70
2019-04-30T08:18:49.172Z,1.77
2019-04-30T08:21:19.017Z,1.77
2019-04-30T08:23:48.940Z,1.65
2019-04-30T08:26:18.784Z,1.70
2019-04-30T08:28:48.740Z,1.37
2019-04-30T08:31:19.578Z,1.57
2019-04-30T08:34:10.633Z,1.43
2019-04-30T08:36:38.688Z,1.63
2019-04-30T08:39:07.401Z,1.30
2019-04-30T08:41:35.804Z,1.02
2019-04-30T08:44:04.561Z,1.30
2019-04-30T08:46:33.016Z,1.65
2019-04-30T08:49:01.496Z,1.40
2019-04-30T08:51:31.060Z,1.37
2019-04-30T08:53:59.981Z,1.10
2019-04-30T08:56:29.517Z,1.60
2019-04-30T08:58:59.445Z,1.32
2019-04-30T09:01:29.369Z,1.20
2019-04-30T09:03:59.704Z,1.57
2019-04-30T09:06:29.412Z,1.15
2019-04-30T09:08:59.307Z,1.10
2019-04-30T09:11:33.887Z,1.22
2019-04-30T09:13:58.583Z,1.10
2019-04-30T09:16:29.237Z,1.05
2019-04-30T09:18:57.212Z,1.02
2019-04-30T09:21:25.688Z,1.30
2019-04-30T09:23:54.269Z,1.00
2019-04-30T09:26:22.676Z,1.35
2019-04-30T09:28:51.254Z,1.20
2019-04-30T09:31:19.891Z,1.20
2019-04-30T09:33:49.289Z,1.30
2019-04-30T09:36:20.610Z,1.27
2019-04-30T09:38:48.550Z,1.20
2019-04-30T09:41:19.148Z,1.40
2019-04-30T09:43:49.262Z,1.30
2019-04-30T09:46:24.577Z,1.42
2019-04-30T09:48:47.771Z,1.50
2019-04-30T09:51:16.644Z,1.35
2019-04-30T09:53:55.747Z,1.30
2019-04-30T09:56:15.504Z,1.32
2019-04-30T09:58:43.914Z,1.22
2019-04-30T10:01:12.073Z,1.32
2019-04-30T10:03:40.809Z,1.30
2019-04-30T10:06:10.106Z,1.07
2019-04-30T10:08:48.227Z,1.05
2019-04-30T10:11:29.342Z,1.20
2019-04-30T10:13:57.756Z,1.37
2019-04-30T10:16:39.640Z,1.20
2019-04-30T10:19:10.129Z,2.10
2019-04-30T10:21:38.927Z,1.82
2019-04-30T10:24:13.043Z,1.47
2019-04-30T10:26:37.628Z,1.75
2019-04-30T10:29:06.769Z,2.02
2019-04-30T10:31:35.225Z,2.37
2019-04-30T10:34:03.400Z,1.90
2019-04-30T10:36:31.813Z,1.55
2019-04-30T10:39:00.272Z,2.35
2019-04-30T10:41:28.888Z,2.00
2019-04-30T10:43:59.116Z,2.83
2019-04-30T10:46:27.460Z,2.17
2019-04-30T10:48:56.079Z,2.33
2019-04-30T10:51:24.485Z,2.87
2019-04-30T10:53:52.894Z,3.27
2019-04-30T10:56:21.292Z,2.65
2019-04-30T10:58:49.764Z,2.40
2019-04-30T11:01:19.259Z,2.35
2019-04-30T11:03:47.753Z,1.92
2019-04-30T11:06:16.264Z,1.67
2019-04-30T11:08:44.345Z,1.37
2019-04-30T11:11:12.739Z,1.00
2019-04-30T11:14:00.528Z,0.98
2019-04-30T11:16:29.774Z,0.98
2019-04-30T11:18:59.209Z,1.07
2019-04-30T11:21:29.570Z,1.07
2019-04-30T11:23:59.513Z,1.10
2019-04-30T11:26:31.093Z,0.80
2019-04-30T11:28:58.580Z,1.70
2019-04-30T11:31:37.791Z,1.92
2019-04-30T11:34:06.629Z,1.77
2019-04-30T11:36:35.029Z,1.50
2019-04-30T11:39:04.667Z,2.08
2019-04-30T11:41:33.404Z,2.40
2019-04-30T11:44:01.856Z,3.58
2019-04-30T11:46:34.190Z,3.72
2019-04-30T11:49:02.478Z,4.03
2019-04-30T11:51:30.639Z,4.40
2019-04-30T11:53:59.463Z,4.05
2019-04-30T11:56:28.024Z,4.37
2019-04-30T11:58:56.446Z,4.28
2019-04-30T12:01:26.649Z,4.90
2019-04-30T12:03:55.081Z,5.33
2019-04-30T12:06:23.489Z,5.72
2019-04-30T12:08:59.301Z,5.92
2019-04-30T12:11:31.753Z,5.00
2019-04-30T12:14:00.164Z,6.30
2019-04-30T12:16:28.599Z,6.87
2019-04-30T12:19:00.446Z,6.00
2019-04-30T12:21:27.251Z,6.08
2019-04-30T12:23:55.661Z,6.30
2019-04-30T12:26:23.741Z,6.33
2019-04-30T12:28:52.216Z,5.75
2019-04-30T12:31:20.320Z,5.83
2019-04-30T12:33:48.771Z,5.60
2019-04-30T12:36:18.877Z,5.85
2019-04-30T12:38:47.400Z,5.78
2019-04-30T12:41:15.817Z,6.10
2019-04-30T12:43:44.211Z,5.65
2019-04-30T12:46:12.637Z,6.75
2019-04-30T12:48:54.819Z,7.20
2019-04-30T12:51:45.842Z,7.87
2019-04-30T12:54:20.455Z,7.00
2019-04-30T12:57:02.264Z,7.70
2019-04-30T12:59:30.687Z,7.72
2019-04-30T13:01:59.414Z,8.75
2019-04-30T13:04:29.370Z,8.70
2019-04-30T13:07:01.606Z,8.05
2019-04-30T13:09:30.256Z,8.33
2019-04-30T13:12:00.291Z,8.83
2019-04-30T13:14:30.090Z,8.65
2019-04-30T13:16:59.013Z,8.75
2019-04-30T13:19:27.604Z,8.53
2019-04-30T13:21:58.466Z,9.13
2019-04-30T13:24:26.245Z,8.45
2019-04-30T13:26:54.928Z,8.85
2019-04-30T13:29:24.972Z,8.70
2019-04-30T13:31:53.391Z,8.80
2019-04-30T13:34:32.199Z,8.55
2019-04-30T13:37:00.633Z,7.50
2019-04-30T13:39:48.084Z,7.85
2019-04-30T13:42:26.508Z,8.05
2019-04-30T13:44:54.628Z,7.95
2019-04-30T13:47:23.204Z,9.30
2019-04-30T13:49:51.612Z,8.63
2019-04-30T13:52:20.045Z,9.13
2019-04-30T13:54:48.445Z,8.83
2019-04-30T13:57:16.886Z,8.00
2019-04-30T13:59:45.294Z,7.92
2019-04-30T14:02:13.709Z,9.00
2019-04-30T14:04:43.514Z,7.78
2019-04-30T14:07:19.304Z,7.65
2019-04-30T14:09:47.790Z,7.85
2019-04-30T14:12:16.202Z,7.90
2019-04-30T14:14:44.604Z,7.83
2019-04-30T14:17:13.117Z,7.95
2019-04-30T14:19:41.530Z,6.78
2019-04-30T14:22:10.010Z,7.60
2019-04-30T14:24:38.408Z,7.33
2019-04-30T14:27:08.862Z,7.20
2019-04-30T14:29:37.144Z,7.45
2019-04-30T14:32:05.607Z,8.23
2019-04-30T14:34:34.013Z,7.72
2019-04-30T14:37:02.437Z,8.08
2019-04-30T14:39:30.983Z,7.12
2019-04-30T14:42:00.418Z,7.55
2019-04-30T14:44:31.988Z,8.03
2019-04-30T14:47:12.635Z,6.45
2019-04-30T14:49:59.682Z,7.75
2019-04-30T14:52:19.348Z,8.30
2019-04-30T14:55:05.703Z,7.53
2019-04-30T14:57:51.268Z,7.85
2019-04-30T15:00:24.765Z,7.58
2019-04-30T15:02:54.484Z,7.20
2019-04-30T15:05:22.889Z,6.85
2019-04-30T15:07:50.989Z,7.28
2019-04-30T15:10:19.460Z,7.10
2019-04-30T15:12:47.547Z,7.15
2019-04-30T15:15:16.226Z,7.10
2019-04-30T15:17:44.332Z,7.25
2019-04-30T15:20:12.905Z,7.67
2019-04-30T15:22:59.352Z,7.60
2019-04-30T15:25:34.131Z,7.53
2019-04-30T15:27:58.977Z,7.22
2019-04-30T15:30:28.906Z,6.67
2019-04-30T15:32:59.358Z,7.42
2019-04-30T15:35:27.969Z,6.67
2019-04-30T15:37:59.411Z,7.72
2019-04-30T15:40:28.875Z,7.97
2019-04-30T15:42:59.156Z,7.80
2019-04-30T15:45:29.191Z,7.45
2019-04-30T15:47:58.517Z,7.67
2019-04-30T15:50:27.009Z,7.92
2019-04-30T15:52:55.161Z,8.18
2019-04-30T15:55:23.656Z,8.38
2019-04-30T15:58:02.231Z,6.90
2019-04-30T16:00:31.809Z,7.95
2019-04-30T16:03:01.524Z,7.15
2019-04-30T16:05:40.755Z,7.20
2019-04-30T16:08:16.656Z,7.85
2019-04-30T16:11:07.095Z,7.20
2019-04-30T16:13:52.545Z,7.22
2019-04-30T16:16:21.020Z,6.87
2019-04-30T16:18:50.424Z,7.35
2019-04-30T16:21:19.348Z,7.58
2019-04-30T16:23:49.040Z,7.50
2019-04-30T16:26:18.142Z,7.28
2019-04-30T16:28:46.630Z,7.15
2019-04-30T16:31:15.110Z,8.08
2019-04-30T16:33:43.550Z,7.60
2019-04-30T16:36:12.065Z,6.47
2019-04-30T16:38:40.482Z,7.47
2019-04-30T16:41:08.995Z,7.55
2019-04-30T16:43:38.862Z,5.92
2019-04-30T16:46:07.548Z,7.05
2019-04-30T16:48:35.956Z,6.15
2019-04-30T16:51:04.356Z,7.30
2019-04-30T16:53:32.440Z,6.95
2019-04-30T16:56:01.785Z,7.00
2019-04-30T16:58:31.852Z,8.18
2019-04-30T17:01:00.873Z,7.25
2019-04-30T17:03:38.722Z,7.70
2019-04-30T17:06:09.035Z,7.37
2019-04-30T17:08:39.185Z,7.80
2019-04-30T17:11:09.310Z,6.58
2019-04-30T17:13:39.340Z,7.58
2019-04-30T17:16:12.164Z,7.55
2019-04-30T17:18:41.746Z,6.90
2019-04-30T17:21:10.533Z,6.67
2019-04-30T17:23:38.935Z,6.67
2019-04-30T17:26:07.360Z,7.08
2019-04-30T17:28:35.809Z,7.00
2019-04-30T17:31:04.573Z,6.40
2019-04-30T17:33:32.989Z,6.90
2019-04-30T17:36:01.401Z,6.72
2019-04-30T17:38:29.799Z,8.38
2019-04-30T17:41:17.224Z,8.58
2019-04-30T17:43:45.645Z,6.65
2019-04-30T17:46:14.112Z,6.47
2019-04-30T17:48:42.196Z,7.08
2019-04-30T17:51:10.619Z,6.70
2019-04-30T17:53:40.665Z,6.67
2019-04-30T17:56:09.145Z,6.95
2019-04-30T17:58:37.653Z,5.85
2019-04-30T18:01:06.762Z,6.92
2019-04-30T18:03:35.537Z,7.40
2019-04-30T18:06:04.017Z,7.08
2019-04-30T18:08:32.484Z,6.42
2019-04-30T18:11:00.924Z,7.45
2019-04-30T18:13:29.345Z,7.00
2019-04-30T18:16:00.217Z,6.65
2019-04-30T18:18:29.607Z,6.67
2019-04-30T18:21:11.681Z,6.87
2019-04-30T18:23:50.458Z,6.85
2019-04-30T18:26:18.883Z,6.90
2019-04-30T18:28:47.278Z,6.67
2019-04-30T18:31:15.689Z,7.45
2019-04-30T18:33:44.097Z,6.33
2019-04-30T18:36:12.547Z,7.03
2019-04-30T18:38:40.955Z,7.33
2019-04-30T18:41:09.529Z,7.45
2019-04-30T18:43:38.559Z,6.90
2019-04-30T18:46:10.539Z,6.78
2019-04-30T18:48:39.362Z,6.95
2019-04-30T18:51:23.549Z,6.28
2019-04-30T18:53:39.719Z,7.47
2019-04-30T18:56:14.263Z,7.10
2019-04-30T18:58:42.249Z,7.10
2019-04-30T19:01:09.390Z,6.65
2019-04-30T19:03:39.133Z,7.00
2019-04-30T19:06:22.284Z,7.58
2019-04-30T19:08:46.868Z,6.87
2019-04-30T19:11:18.673Z,7.30
2019-04-30T19:14:04.777Z,6.90
2019-04-30T19:16:42.151Z,6.78
2019-04-30T19:19:15.421Z,6.37
2019-04-30T19:21:43.508Z,7.28
2019-04-30T19:24:11.596Z,8.10
2019-04-30T19:26:39.693Z,8.03
2019-04-30T19:29:08.102Z,8.88
2019-04-30T19:31:36.258Z,6.92
2019-04-30T19:34:05.017Z,7.45
2019-04-30T19:36:37.313Z,6.67
2019-04-30T19:39:05.216Z,6.37
2019-04-30T19:41:33.638Z,6.65
2019-04-30T19:44:01.765Z,6.00
2019-04-30T19:46:29.869Z,6.37
2019-04-30T19:48:58.542Z,6.40
2019-04-30T19:51:27.291Z,5.67
2019-04-30T19:53:55.696Z,6.33
2019-04-30T19:56:24.099Z,6.15
2019-04-30T19:59:01.694Z,6.05
2019-04-30T20:01:22.642Z,5.62
2019-04-30T20:03:50.724Z,5.65
2019-04-30T20:06:19.218Z,6.17
2019-04-30T20:08:47.372Z,5.87
2019-04-30T20:11:15.777Z,5.65
2019-04-30T20:13:44.303Z,5.97
2019-04-30T20:16:12.372Z,6.65
2019-04-30T20:18:40.794Z,6.15
2019-04-30T20:21:44.970Z,5.20
2019-04-30T20:23:58.675Z,6.55
2019-04-30T20:26:27.088Z,6.10
2019-04-30T20:28:55.513Z,5.95
2019-04-30T20:31:23.590Z,6.58
2019-04-30T20:33:53.710Z,6.47
2019-04-30T20:36:22.291Z,6.05
2019-04-30T20:38:55.012Z,6.28
2019-04-30T20:41:24.728Z,6.10
2019-04-30T20:43:53.148Z,6.28
2019-04-30T20:46:31.473Z,6.83
2019-04-30T20:48:51.684Z,6.83
2019-04-30T20:51:20.113Z,6.45
2019-04-30T20:53:49.185Z,6.35
2019-04-30T20:56:19.144Z,7.00
2019-04-30T20:58:57.186Z,7.25
2019-04-30T21:01:19.343Z,6.53
2019-04-30T21:03:48.067Z,6.55
2019-04-30T21:06:16.504Z,6.95
2019-04-30T21:08:44.929Z,6.53
2019-04-30T21:11:13.334Z,6.85
2019-04-30T21:13:41.752Z,6.62
2019-04-30T21:16:10.169Z,7.08
2019-04-30T21:18:39.108Z,6.75
2019-04-30T21:21:07.871Z,6.42
2019-04-30T21:23:36.368Z,7.40
2019-04-30T21:26:04.781Z,6.78
2019-04-30T21:28:33.197Z,7.45
2019-04-30T21:31:03.359Z,7.55
2019-04-30T21:33:33.409Z,7.20
2019-04-30T21:36:06.281Z,7.42
2019-04-30T21:38:34.692Z,7.17
2019-04-30T21:41:03.132Z,6.60
2019-04-30T21:43:31.550Z,6.67
2019-04-30T21:45:59.634Z,7.05
2019-04-30T21:48:28.770Z,6.92
2019-04-30T21:50:59.190Z,7.08
2019-04-30T21:53:27.145Z,7.58
2019-04-30T21:55:55.556Z,6.40
2019-04-30T21:58:23.973Z,7.37
2019-04-30T22:01:02.754Z,6.85
2019-04-30T22:03:31.161Z,7.37
2019-04-30T22:05:59.560Z,6.85
2019-04-30T22:08:28.788Z,5.58
2019-04-30T22:10:58.201Z,7.00
2019-04-30T22:13:26.886Z,6.33
2019-04-30T22:15:55.284Z,6.10
2019-04-30T22:18:23.792Z,5.80
2019-04-30T22:20:52.205Z,6.05
2019-04-30T22:23:20.596Z,6.30
2019-04-30T22:25:49.138Z,5.87
2019-04-30T22:28:17.586Z,6.25
2019-04-30T22:30:46.270Z,6.42
2019-04-30T22:33:14.332Z,6.40
2019-04-30T22:35:56.336Z,5.87
2019-04-30T22:38:26.047Z,7.20
2019-04-30T22:41:13.802Z,7.45
2019-04-30T22:43:42.192Z,6.35
2019-04-30T22:46:14.853Z,5.72
2019-04-30T22:48:43.298Z,6.72
2019-04-30T22:51:11.704Z,6.45
2019-04-30T22:53:39.776Z,6.65
2019-04-30T22:56:08.193Z,6.17
2019-04-30T22:58:36.592Z,6.80
2019-04-30T23:01:23.309Z,6.37
2019-04-30T23:03:53.345Z,6.08
2019-04-30T23:06:21.825Z,6.17
2019-04-30T23:08:50.241Z,6.70
2019-04-30T23:11:18.650Z,5.87
2019-04-30T23:13:46.723Z,7.33
2019-04-30T23:16:15.204Z,6.53
2019-04-30T23:18:43.605Z,5.87
2019-04-30T23:21:12.091Z,6.12
2019-04-30T23:23:40.492Z,6.37
2019-04-30T23:26:08.909Z,6.53
2019-04-30T23:28:37.304Z,5.97
2019-04-30T23:31:05.721Z,6.00
2019-04-30T23:33:33.790Z,5.58
2019-04-30T23:36:02.220Z,5.62
2019-04-30T23:38:30.315Z,6.08
2019-04-30T23:40:58.721Z,6.42
2019-04-30T23:43:27.124Z,6.30
2019-04-30T23:45:55.208Z,5.95
2019-04-30T23:48:23.276Z,5.60
2019-04-30T23:50:51.677Z,5.47
2019-04-30T23:53:20.079Z,6.12
2019-04-30T23:55:48.477Z,6.53
2019-04-30T23:58:16.579Z,5.85
